Time;durP1;ratioP1;P1;durP2;ratioP2;P2;SDS_P1;SDS_P2;PMS_P1;PMS_P2;Temp;Humidity;BMP_temperature;BMP_pressure;BME280_temperature;BME280_humidity;BME280_pressure;Samples;Min_cycle;Max_cycle;Signal;HPM_P1;HPM_P2
2022/03/21 00:00:47;;;;;;;;;;;20.10;34.00;;;;;;5077507;28;19924;-47
2022/03/21 00:03:15;;;;;;;;;;;20.20;34.20;;;;;;5071958;28;19924;-43
2022/03/21 00:05:42;;;;;;;;;;;20.10;34.10;;;;;;5087897;28;19920;-44
2022/03/21 00:08:10;;;;;;;;;;;20.10;34.10;;;;;;5080329;28;19921;-44
2022/03/21 00:10:39;;;;;;;;;;;20.10;34.10;;;;;;5076858;28;19921;-49
2022/03/21 00:13:05;;;;;;;;;;;20.10;34.10;;;;;;5081403;28;19920;-46
2022/03/21 00:15:32;;;;;;;;;;;20.10;34.10;;;;;;5081047;28;19920;-45
2022/03/21 00:17:59;;;;;;;;;;;20.10;34.10;;;;;;5077137;28;19932;-44
2022/03/21 00:20:26;;;;;;;;;;;20.10;34.10;;;;;;5078909;28;19928;-43
2022/03/21 00:22:53;;;;;;;;;;;20.10;34.10;;;;;;5082932;28;20366;-47
2022/03/21 00:25:20;;;;;;;;;;;20.10;34.10;;;;;;5089540;28;19955;-49
2022/03/21 00:27:48;;;;;;;;;;;20.10;34.10;;;;;;5061496;28;20362;-49
2022/03/21 00:30:15;;;;;;;;;;;20.10;34.10;;;;;;5061487;28;19931;-47
2022/03/21 00:32:42;;;;;;;;;;;20.20;34.20;;;;;;5072525;28;19920;-48
2022/03/21 00:35:09;;;;;;;;;;;20.10;34.10;;;;;;5077587;28;19920;-49
2022/03/21 00:37:37;;;;;;;;;;;20.20;34.20;;;;;;5079780;28;19921;-45
2022/03/21 00:40:05;;;;;;;;;;;20.10;34.10;;;;;;5075379;28;19920;-44
2022/03/21 00:42:35;;;;;;;;;;;20.10;34.10;;;;;;5075548;28;20273;-46
2022/03/21 00:45:03;;;;;;;;;;;20.10;34.10;;;;;;5095005;28;20303;-46
2022/03/21 00:47:31;;;;;;;;;;;20.10;34.10;;;;;;5071838;28;19962;-46
2022/03/21 00:49:58;;;;;;;;;;;20.10;34.10;;;;;;5065440;28;19920;-47
2022/03/21 00:52:24;;;;;;;;;;;20.10;34.10;;;;;;5071600;28;20354;-44
2022/03/21 00:54:51;;;;;;;;;;;20.10;34.10;;;;;;5070284;28;19950;-45
2022/03/21 00:57:18;;;;;;;;;;;20.10;34.10;;;;;;5068013;28;20358;-44
2022/03/21 00:59:45;;;;;;;;;;;20.10;34.10;;;;;;5065380;28;19920;-45
2022/03/21 01:02:13;;;;;;;;;;;20.10;34.10;;;;;;5064911;28;19920;-46
2022/03/21 01:04:39;;;;;;;;;;;20.10;34.10;;;;;;5074237;28;20277;-45
2022/03/21 01:07:07;;;;;;;;;;;20.10;34.10;;;;;;5076677;28;19943;-46
2022/03/21 01:09:34;;;;;;;;;;;20.10;34.10;;;;;;5067236;28;19921;-46
2022/03/21 01:12:03;;;;;;;;;;;20.10;34.10;;;;;;5082914;28;19956;-46
2022/03/21 01:14:30;;;;;;;;;;;20.10;34.10;;;;;;5106485;28;20340;-48
2022/03/21 01:16:57;;;;;;;;;;;20.10;34.10;;;;;;5095302;28;20277;-44
2022/03/21 01:19:27;;;;;;;;;;;20.10;34.10;;;;;;5075631;28;19924;-43
2022/03/21 01:21:55;;;;;;;;;;;20.10;34.10;;;;;;5080624;28;19920;-47
2022/03/21 01:24:22;;;;;;;;;;;20.10;34.10;;;;;;5072365;28;19924;-49
2022/03/21 01:26:49;;;;;;;;;;;20.10;34.10;;;;;;5079600;28;19920;-45
2022/03/21 01:29:18;;;;;;;;;;;20.10;34.10;;;;;;5074626;28;20377;-45
2022/03/21 01:31:47;;;;;;;;;;;20.10;34.10;;;;;;5076829;28;19921;-49
2022/03/21 01:34:13;;;;;;;;;;;20.10;34.10;;;;;;5069251;28;19933;-49
2022/03/21 01:36:42;;;;;;;;;;;20.10;34.10;;;;;;5073016;28;19974;-45
2022/03/21 01:39:08;;;;;;;;;;;20.10;34.10;;;;;;5074760;28;19948;-47
2022/03/21 01:41:35;;;;;;;;;;;20.10;34.10;;;;;;5073835;28;19921;-46
2022/03/21 01:44:03;;;;;;;;;;;20.10;34.10;;;;;;5106205;28;20012;-47
2022/03/21 01:46:29;;;;;;;;;;;20.10;34.10;;;;;;5075366;28;20330;-48
2022/03/21 01:48:56;;;;;;;;;;;20.10;34.10;;;;;;5073880;28;20273;-45
2022/03/21 01:51:23;;;;;;;;;;;20.10;34.10;;;;;;5076010;28;19927;-46
2022/03/21 01:56:35;;;;;;;;;;;20.10;34.10;;;;;;5085716;28;19920;-46
2022/03/21 01:59:02;;;;;;;;;;;20.10;34.10;;;;;;5080111;28;19921;-45
2022/03/21 02:01:29;;;;;;;;;;;20.10;34.10;;;;;;5076996;28;19970;-45
2022/03/21 02:03:56;;;;;;;;;;;20.10;34.10;;;;;;5073663;28;19996;-45
2022/03/21 02:06:24;;;;;;;;;;;20.10;34.10;;;;;;5104690;28;19994;-44
2022/03/21 02:08:52;;;;;;;;;;;20.10;34.10;;;;;;5074904;28;19928;-48
2022/03/21 02:11:19;;;;;;;;;;;20.10;34.10;;;;;;5058732;28;19920;-46
2022/03/21 02:13:47;;;;;;;;;;;20.10;34.10;;;;;;5087976;28;19932;-46
2022/03/21 02:16:14;;;;;;;;;;;20.10;34.00;;;;;;5075394;28;19920;-43
2022/03/21 02:18:41;;;;;;;;;;;20.10;34.00;;;;;;5066847;28;19959;-45
2022/03/21 02:21:08;;;;;;;;;;;20.10;34.00;;;;;;5090410;28;19978;-47
2022/03/21 02:23:37;;;;;;;;;;;20.10;34.00;;;;;;5072765;28;19959;-45
2022/03/21 02:26:05;;;;;;;;;;;20.10;34.00;;;;;;5075739;28;19928;-45
2022/03/21 02:28:31;;;;;;;;;;;20.10;34.00;;;;;;5112983;28;19921;-48
2022/03/21 02:30:58;;;;;;;;;;;20.10;34.00;;;;;;5076996;28;19927;-45
2022/03/21 02:33:25;;;;;;;;;;;20.10;34.00;;;;;;5071596;28;19920;-46
2022/03/21 02:35:52;;;;;;;;;;;20.10;34.00;;;;;;5076459;28;19964;-46
2022/03/21 02:38:19;;;;;;;;;;;20.10;34.00;;;;;;5072034;28;20261;-44
2022/03/21 02:40:46;;;;;;;;;;;20.10;34.00;;;;;;5073338;28;19924;-45
2022/03/21 02:43:14;;;;;;;;;;;20.10;34.00;;;;;;5075931;28;20364;-46
2022/03/21 02:45:42;;;;;;;;;;;20.10;34.00;;;;;;5071407;28;19947;-44
2022/03/21 02:48:13;;;;;;;;;;;20.10;34.00;;;;;;5095218;28;23260;-45
2022/03/21 02:50:40;;;;;;;;;;;20.10;34.00;;;;;;5112135;28;19920;-44
2022/03/21 02:53:07;;;;;;;;;;;20.10;34.00;;;;;;5094397;28;19924;-44
2022/03/21 02:55:33;;;;;;;;;;;20.10;33.90;;;;;;5084497;28;19920;-44
2022/03/21 02:58:00;;;;;;;;;;;20.10;34.00;;;;;;5059493;28;19921;-46
2022/03/21 03:00:28;;;;;;;;;;;20.10;34.00;;;;;;5071262;28;19924;-46
2022/03/21 03:02:55;;;;;;;;;;;20.10;34.00;;;;;;5069648;28;19921;-44
2022/03/21 03:05:22;;;;;;;;;;;20.10;34.00;;;;;;5061709;28;20006;-49
2022/03/21 03:07:49;;;;;;;;;;;20.10;33.90;;;;;;5072490;28;19927;-46
2022/03/21 03:10:15;;;;;;;;;;;20.10;34.00;;;;;;5078632;28;19920;-45
2022/03/21 03:12:44;;;;;;;;;;;20.10;33.90;;;;;;5069974;28;19928;-44
2022/03/21 03:15:11;;;;;;;;;;;20.10;33.90;;;;;;5058792;28;19928;-44
2022/03/21 03:17:39;;;;;;;;;;;20.10;34.00;;;;;;5073661;28;19924;-46
2022/03/21 03:20:08;;;;;;;;;;;20.10;33.90;;;;;;5073695;28;19921;-44
2022/03/21 03:22:35;;;;;;;;;;;20.10;33.90;;;;;;5077372;28;19920;-45
2022/03/21 03:25:02;;;;;;;;;;;20.10;33.90;;;;;;5074007;28;20007;-44
2022/03/21 03:27:30;;;;;;;;;;;20.10;33.90;;;;;;5073905;28;19943;-46
2022/03/21 03:29:57;;;;;;;;;;;20.10;33.90;;;;;;5056246;28;19979;-47
2022/03/21 03:32:24;;;;;;;;;;;20.10;33.90;;;;;;5093529;28;19982;-44
2022/03/21 03:34:52;;;;;;;;;;;20.10;34.50;;;;;;5077377;28;19920;-44
2022/03/21 03:37:19;;;;;;;;;;;20.10;33.90;;;;;;5076719;28;19920;-44
2022/03/21 03:39:46;;;;;;;;;;;20.10;33.90;;;;;;5065149;28;19928;-45
2022/03/21 03:42:12;;;;;;;;;;;20.10;33.80;;;;;;5080394;28;19920;-44
2022/03/21 03:44:39;;;;;;;;;;;20.10;33.80;;;;;;5076768;28;19956;-45
2022/03/21 03:47:06;;;;;;;;;;;20.10;33.90;;;;;;5081762;28;19921;-48
2022/03/21 03:49:33;;;;;;;;;;;20.10;33.80;;;;;;5074962;28;19967;-46
2022/03/21 03:52:02;;;;;;;;;;;20.10;33.80;;;;;;5074217;28;19960;-46
2022/03/21 03:54:28;;;;;;;;;;;20.10;33.80;;;;;;5071220;28;19928;-45
2022/03/21 03:56:56;;;;;;;;;;;20.10;33.80;;;;;;5064173;28;19920;-46
2022/03/21 03:59:23;;;;;;;;;;;20.10;33.80;;;;;;5081527;28;19920;-44
2022/03/21 04:01:50;;;;;;;;;;;20.10;33.90;;;;;;5077770;28;19976;-44
2022/03/21 04:04:20;;;;;;;;;;;20.10;33.80;;;;;;5077291;28;19972;-46
2022/03/21 04:06:47;;;;;;;;;;;20.10;33.80;;;;;;5071856;28;19959;-44
2022/03/21 04:09:16;;;;;;;;;;;20.10;33.80;;;;;;5078105;28;19927;-48
2022/03/21 04:11:42;;;;;;;;;;;20.10;33.80;;;;;;5076935;28;19942;-49
2022/03/21 04:14:09;;;;;;;;;;;20.10;33.80;;;;;;5078141;28;19920;-46
2022/03/21 04:16:36;;;;;;;;;;;20.10;33.80;;;;;;5077383;28;20003;-45
2022/03/21 04:19:03;;;;;;;;;;;20.10;33.80;;;;;;5078443;28;19970;-46
2022/03/21 04:21:30;;;;;;;;;;;20.10;33.80;;;;;;5072893;28;19955;-46
2022/03/21 04:23:58;;;;;;;;;;;20.10;33.80;;;;;;5081205;28;19950;-45
2022/03/21 04:26:27;;;;;;;;;;;20.10;33.70;;;;;;5076095;28;20015;-44
2022/03/21 04:28:56;;;;;;;;;;;20.10;33.80;;;;;;5084364;28;19927;-45
2022/03/21 04:31:22;;;;;;;;;;;20.10;33.80;;;;;;5080164;28;20524;-44
2022/03/21 04:33:49;;;;;;;;;;;20.10;33.80;;;;;;5076122;28;19931;-45
2022/03/21 04:36:19;;;;;;;;;;;20.10;33.70;;;;;;5090714;28;19920;-47
2022/03/21 04:38:46;;;;;;;;;;;20.10;33.70;;;;;;5075952;28;19929;-44
2022/03/21 04:41:15;;;;;;;;;;;20.10;33.70;;;;;;5107256;28;19920;-46
2022/03/21 04:43:44;;;;;;;;;;;20.10;33.70;;;;;;5076155;28;19999;-46
2022/03/21 04:46:10;;;;;;;;;;;20.10;33.70;;;;;;5061918;28;19955;-45
2022/03/21 04:48:37;;;;;;;;;;;20.10;33.70;;;;;;5075540;28;19927;-45
2022/03/21 04:51:04;;;;;;;;;;;20.10;33.70;;;;;;5077661;28;19920;-46
2022/03/21 04:53:31;;;;;;;;;;;20.10;33.70;;;;;;5068913;28;19925;-44
2022/03/21 04:55:58;;;;;;;;;;;20.10;33.60;;;;;;5063914;28;20420;-47
2022/03/21 04:58:25;;;;;;;;;;;20.10;33.70;;;;;;5081245;28;19921;-45
2022/03/21 05:00:54;;;;;;;;;;;20.10;33.60;;;;;;5080185;28;19976;-46
2022/03/21 05:03:21;;;;;;;;;;;20.10;33.60;;;;;;5074840;28;19959;-43
2022/03/21 05:05:48;;;;;;;;;;;20.10;33.60;;;;;;5071863;28;19942;-48
2022/03/21 05:08:15;;;;;;;;;;;20.00;33.50;;;;;;5076063;28;19931;-43
2022/03/21 05:10:42;;;;;;;;;;;20.10;33.60;;;;;;5080120;28;19948;-46
2022/03/21 05:13:11;;;;;;;;;;;20.00;33.50;;;;;;5078833;28;19920;-46
2022/03/21 05:15:38;;;;;;;;;;;20.10;33.60;;;;;;5076403;28;19920;-44
2022/03/21 05:18:06;;;;;;;;;;;20.10;33.60;;;;;;5096636;28;20328;-50
2022/03/21 05:20:33;;;;;;;;;;;20.10;33.60;;;;;;5094315;28;19921;-46
2022/03/21 05:31:17;;;;;;;;;;;20.10;33.50;;;;;;5088634;28;19931;-48
2022/03/21 05:36:29;;;;;;;;;;;20.00;33.50;;;;;;5065699;28;19931;-45
2022/03/21 05:38:56;;;;;;;;;;;20.10;34.10;;;;;;5064920;28;19925;-44
2022/03/21 05:41:25;;;;;;;;;;;20.00;33.50;;;;;;5071582;28;19920;-45
2022/03/21 05:43:52;;;;;;;;;;;20.00;33.50;;;;;;5076428;28;19921;-46
2022/03/21 05:46:19;;;;;;;;;;;20.00;33.50;;;;;;5072729;28;19970;-44
2022/03/21 05:48:54;;;;;;;;;;;20.00;33.40;;;;;;5078408;28;19927;-47
2022/03/21 05:51:22;;;;;;;;;;;20.00;33.40;;;;;;5080131;28;19924;-48
2022/03/21 05:53:49;;;;;;;;;;;20.00;33.50;;;;;;5095492;28;20370;-49
2022/03/21 05:56:17;;;;;;;;;;;20.00;33.40;;;;;;5068709;28;19927;-48
2022/03/21 05:58:43;;;;;;;;;;;20.00;33.40;;;;;;5078239;28;19927;-49
2022/03/21 06:01:11;;;;;;;;;;;20.00;34.00;;;;;;5075754;28;19925;-47
2022/03/21 06:03:38;;;;;;;;;;;20.10;33.50;;;;;;5079605;28;19927;-50
2022/03/21 06:06:06;;;;;;;;;;;20.00;33.40;;;;;;5074264;28;20369;-45
2022/03/21 06:08:33;;;;;;;;;;;20.00;33.40;;;;;;5080602;28;19920;-45
2022/03/21 06:11:08;;;;;;;;;;;20.00;33.30;;;;;;5079275;28;19983;-45
2022/03/21 06:13:35;;;;;;;;;;;20.10;33.40;;;;;;5068703;28;19920;-43
2022/03/21 06:16:03;;;;;;;;;;;20.00;33.40;;;;;;5066279;28;19921;-46
2022/03/21 06:18:30;;;;;;;;;;;20.00;33.30;;;;;;5094153;28;19921;-48
2022/03/21 06:20:56;;;;;;;;;;;20.00;33.30;;;;;;5068373;28;19956;-45
2022/03/21 06:23:25;;;;;;;;;;;20.10;33.40;;;;;;5066128;28;19926;-48
2022/03/21 06:25:53;;;;;;;;;;;20.00;33.30;;;;;;5079427;28;19973;-44
2022/03/21 06:28:20;;;;;;;;;;;20.00;33.30;;;;;;5073116;28;19920;-46
2022/03/21 06:30:50;;;;;;;;;;;20.00;33.30;;;;;;5075906;28;19965;-44
2022/03/21 06:33:17;;;;;;;;;;;20.00;33.30;;;;;;5059535;28;19921;-47
2022/03/21 06:35:46;;;;;;;;;;;20.00;33.30;;;;;;5060556;28;19960;-45
2022/03/21 06:38:12;;;;;;;;;;;20.00;33.30;;;;;;5066640;28;20269;-47
2022/03/21 06:40:41;;;;;;;;;;;20.00;33.20;;;;;;5073257;28;19950;-47
2022/03/21 06:43:07;;;;;;;;;;;20.00;33.80;;;;;;5074327;28;19920;-46
2022/03/21 06:45:34;;;;;;;;;;;20.00;33.20;;;;;;5094452;28;19921;-44
2022/03/21 06:48:01;;;;;;;;;;;20.00;33.20;;;;;;5105919;28;19931;-43
2022/03/21 06:50:28;;;;;;;;;;;20.00;33.20;;;;;;5083062;28;19969;-47
2022/03/21 06:52:55;;;;;;;;;;;20.00;33.20;;;;;;5094016;28;19966;-47
2022/03/21 06:55:22;;;;;;;;;;;20.00;33.20;;;;;;5094035;28;19943;-43
2022/03/21 06:57:50;;;;;;;;;;;20.00;33.20;;;;;;5076804;28;19921;-45
2022/03/21 07:00:17;;;;;;;;;;;20.00;33.20;;;;;;5080576;28;20312;-43
2022/03/21 07:02:44;;;;;;;;;;;20.00;33.20;;;;;;5075759;28;19920;-44
2022/03/21 07:05:11;;;;;;;;;;;20.00;33.20;;;;;;5079293;28;19928;-45
2022/03/21 07:07:40;;;;;;;;;;;20.00;33.20;;;;;;5073790;28;20362;-43
2022/03/21 07:10:09;;;;;;;;;;;20.00;33.10;;;;;;5079887;28;19921;-50
2022/03/21 07:12:38;;;;;;;;;;;20.00;33.10;;;;;;5079339;28;19921;-45
2022/03/21 07:15:08;;;;;;;;;;;20.00;33.10;;;;;;5069665;28;19927;-45
2022/03/21 07:17:34;;;;;;;;;;;20.00;33.20;;;;;;5073941;28;19927;-43
2022/03/21 07:20:01;;;;;;;;;;;20.00;33.10;;;;;;5071134;28;19932;-43
2022/03/21 07:22:28;;;;;;;;;;;20.00;33.10;;;;;;5071075;28;19970;-49
2022/03/21 07:24:56;;;;;;;;;;;20.00;33.20;;;;;;5071993;28;19921;-45
2022/03/21 07:27:23;;;;;;;;;;;20.00;33.20;;;;;;5080391;28;19921;-43
2022/03/21 07:29:49;;;;;;;;;;;20.00;33.20;;;;;;5065278;28;19973;-43
2022/03/21 07:32:18;;;;;;;;;;;20.00;33.20;;;;;;5068760;28;19928;-46
2022/03/21 07:34:44;;;;;;;;;;;20.00;33.20;;;;;;5094740;28;20046;-47
2022/03/21 07:37:11;;;;;;;;;;;20.00;33.20;;;;;;5095366;28;19925;-44
2022/03/21 07:39:39;;;;;;;;;;;20.10;33.20;;;;;;5065764;28;19950;-44
2022/03/21 07:42:07;;;;;;;;;;;20.00;33.20;;;;;;5062193;28;19943;-45
2022/03/21 07:47:21;;;;;;;;;;;20.00;33.10;;;;;;5069649;28;19921;-45
2022/03/21 07:49:48;;;;;;;;;;;20.00;33.10;;;;;;5061488;28;19968;-47
2022/03/21 07:52:17;;;;;;;;;;;20.00;33.10;;;;;;5073585;28;19927;-46
2022/03/21 07:54:45;;;;;;;;;;;20.00;33.10;;;;;;5063626;28;19921;-46
2022/03/21 07:57:14;;;;;;;;;;;20.10;33.20;;;;;;5094380;28;19927;-45
2022/03/21 07:59:41;;;;;;;;;;;20.00;33.10;;;;;;5067366;28;20086;-46
2022/03/21 08:02:08;;;;;;;;;;;20.00;33.10;;;;;;5087124;28;19942;-54
2022/03/21 08:04:37;;;;;;;;;;;20.00;33.10;;;;;;5056078;28;19958;-58
2022/03/21 08:07:04;;;;;;;;;;;20.00;32.50;;;;;;5086598;28;20394;-57
2022/03/21 08:09:30;;;;;;;;;;;20.10;31.90;;;;;;5055537;28;20027;-54
2022/03/21 08:11:58;;;;;;;;;;;20.00;31.60;;;;;;5045136;28;19936;-51
2022/03/21 08:14:24;;;;;;;;;;;20.00;31.60;;;;;;5081955;28;19958;-51
2022/03/21 08:16:52;;;;;;;;;;;20.00;31.40;;;;;;5056474;28;20315;-57
2022/03/21 08:19:20;;;;;;;;;;;20.00;31.40;;;;;;5057057;28;19936;-52
2022/03/21 08:21:48;;;;;;;;;;;20.00;31.30;;;;;;5053251;28;20032;-55
2022/03/21 08:24:15;;;;;;;;;;;20.00;31.00;;;;;;5056144;28;19932;-46
2022/03/21 08:26:43;;;;;;;;;;;20.00;30.80;;;;;;5061523;28;20216;-53
2022/03/21 08:29:10;;;;;;;;;;;19.90;30.50;;;;;;5055621;28;19921;-47
2022/03/21 08:31:36;;;;;;;;;;;19.90;30.60;;;;;;5048911;28;20027;-49
2022/03/21 08:34:04;;;;;;;;;;;19.90;30.70;;;;;;5050841;28;19921;-47
2022/03/21 08:36:31;;;;;;;;;;;19.90;30.50;;;;;;5090843;28;19935;-50
2022/03/21 08:38:59;;;;;;;;;;;19.90;30.50;;;;;;5063132;28;19963;-51
2022/03/21 08:41:26;;;;;;;;;;;19.90;30.50;;;;;;5061788;28;19925;-61
2022/03/21 08:43:53;;;;;;;;;;;19.90;30.30;;;;;;5069973;28;19920;-46
2022/03/21 08:46:21;;;;;;;;;;;19.90;30.30;;;;;;5090429;28;19921;-50
2022/03/21 08:51:32;;;;;;;;;;;19.90;30.30;;;;;;5083563;28;20033;-51
2022/03/21 08:54:01;;;;;;;;;;;19.90;30.30;;;;;;5065437;28;20354;-48
2022/03/21 08:56:28;;;;;;;;;;;19.90;30.20;;;;;;5054578;28;20005;-47
2022/03/21 08:58:55;;;;;;;;;;;19.90;30.00;;;;;;5052864;28;19964;-54
2022/03/21 09:01:22;;;;;;;;;;;19.90;30.00;;;;;;5050449;28;19974;-54
2022/03/21 09:03:49;;;;;;;;;;;19.90;30.00;;;;;;5049090;28;19952;-50
2022/03/21 09:06:17;;;;;;;;;;;19.90;29.90;;;;;;5066799;28;19932;-55
2022/03/21 09:08:43;;;;;;;;;;;19.90;30.00;;;;;;5065131;28;19932;-51
2022/03/21 09:11:13;;;;;;;;;;;19.90;29.90;;;;;;5050254;28;19936;-49
2022/03/21 09:13:40;;;;;;;;;;;19.90;29.90;;;;;;5048241;28;19927;-50
2022/03/21 09:16:07;;;;;;;;;;;19.90;29.80;;;;;;5049648;28;19967;-48
2022/03/21 09:18:34;;;;;;;;;;;19.90;29.80;;;;;;5060025;28;20281;-53
2022/03/21 09:21:00;;;;;;;;;;;19.90;29.80;;;;;;5050483;28;20004;-57
2022/03/21 09:23:27;;;;;;;;;;;19.90;29.80;;;;;;5047321;28;19921;-57
2022/03/21 09:25:55;;;;;;;;;;;19.90;29.80;;;;;;5055817;28;20292;-48
2022/03/21 09:28:23;;;;;;;;;;;19.90;29.80;;;;;;5061547;28;19971;-51
2022/03/21 09:30:50;;;;;;;;;;;19.90;29.90;;;;;;5066601;28;19932;-53
2022/03/21 09:33:17;;;;;;;;;;;19.90;29.90;;;;;;5059191;28;19967;-58
2022/03/21 09:35:44;;;;;;;;;;;19.90;29.90;;;;;;5064389;28;19927;-59
2022/03/21 09:38:11;;;;;;;;;;;19.90;29.90;;;;;;5059710;28;19933;-53
2022/03/21 09:40:38;;;;;;;;;;;19.90;29.80;;;;;;5062619;28;19928;-55
2022/03/21 09:43:05;;;;;;;;;;;19.90;29.90;;;;;;5057936;28;20020;-50
2022/03/21 09:45:34;;;;;;;;;;;19.90;29.80;;;;;;5058808;28;19920;-50
2022/03/21 09:48:11;;;;;;;;;;;19.90;29.80;;;;;;5055694;28;20004;-55
2022/03/21 09:50:40;;;;;;;;;;;19.90;29.90;;;;;;5055509;28;19942;-51
2022/03/21 09:53:07;;;;;;;;;;;19.90;29.80;;;;;;5059032;28;19921;-55
2022/03/21 09:55:34;;;;;;;;;;;19.90;29.90;;;;;;5060285;28;20047;-55
2022/03/21 09:58:01;;;;;;;;;;;19.90;29.90;;;;;;5060051;28;19974;-55
2022/03/21 10:00:28;;;;;;;;;;;19.90;29.90;;;;;;5059155;28;19935;-51
2022/03/21 10:02:56;;;;;;;;;;;19.90;29.90;;;;;;5062661;28;20361;-53
2022/03/21 10:05:36;;;;;;;;;;;19.90;30.00;;;;;;5061194;28;20018;-50
2022/03/21 10:08:12;;;;;;;;;;;19.90;29.90;;;;;;5057145;28;20035;-53
2022/03/21 10:10:39;;;;;;;;;;;19.90;29.90;;;;;;5058941;28;20460;-54
2022/03/21 10:13:09;;;;;;;;;;;19.90;29.90;;;;;;5061721;28;20003;-51
2022/03/21 10:15:36;;;;;;;;;;;19.90;29.80;;;;;;5056619;28;19931;-50
2022/03/21 10:18:08;;;;;;;;;;;19.90;29.80;;;;;;5061569;28;19967;-57
2022/03/21 10:20:35;;;;;;;;;;;19.90;29.80;;;;;;5060837;28;20020;-56
2022/03/21 10:23:18;;;;;;;;;;;19.90;29.80;;;;;;5061328;28;19997;-52
2022/03/21 10:25:45;;;;;;;;;;;19.90;29.70;;;;;;5088483;28;19924;-51
2022/03/21 10:28:11;;;;;;;;;;;19.90;29.80;;;;;;5061290;28;19966;-53
2022/03/21 10:30:44;;;;;;;;;;;19.90;29.80;;;;;;5061203;28;20382;-50
2022/03/21 10:33:12;;;;;;;;;;;19.90;29.90;;;;;;5063404;28;19931;-51
2022/03/21 10:35:45;;;;;;;;;;;19.90;29.90;;;;;;5056037;28;20006;-49
2022/03/21 10:38:12;;;;;;;;;;;19.90;29.80;;;;;;5061190;28;19931;-50
2022/03/21 10:40:42;;;;;;;;;;;19.90;30.00;;;;;;5056935;28;19960;-52
2022/03/21 10:43:10;;;;;;;;;;;19.90;29.90;;;;;;5059806;28;20332;-52
2022/03/21 10:45:42;;;;;;;;;;;19.90;29.90;;;;;;5062008;28;19931;-55
2022/03/21 10:48:09;;;;;;;;;;;19.90;29.90;;;;;;5061715;28;20007;-54
2022/03/21 10:50:39;;;;;;;;;;;19.90;29.90;;;;;;5058649;28;19933;-47
2022/03/21 10:53:07;;;;;;;;;;;19.90;29.90;;;;;;5056744;28;20396;-51
2022/03/21 10:55:34;;;;;;;;;;;19.90;29.80;;;;;;5060860;28;19959;-53
2022/03/21 10:58:01;;;;;;;;;;;19.90;29.80;;;;;;5057649;28;19921;-54
2022/03/21 11:00:28;;;;;;;;;;;19.90;29.90;;;;;;5057787;28;20366;-51
2022/03/21 11:02:56;;;;;;;;;;;19.90;29.90;;;;;;5057386;28;19928;-49
2022/03/21 11:05:23;;;;;;;;;;;19.90;29.80;;;;;;5056941;28;20415;-55
2022/03/21 11:07:51;;;;;;;;;;;19.90;29.80;;;;;;5054410;28;20025;-55
2022/03/21 11:10:18;;;;;;;;;;;19.90;29.80;;;;;;5059788;28;19932;-55
2022/03/21 11:12:45;;;;;;;;;;;19.90;29.90;;;;;;5056707;28;19985;-53
2022/03/21 11:15:11;;;;;;;;;;;19.90;29.90;;;;;;5061797;28;19925;-59
2022/03/21 11:17:38;;;;;;;;;;;19.90;29.90;;;;;;5060240;28;19927;-58
2022/03/21 11:20:05;;;;;;;;;;;19.90;29.90;;;;;;5063480;28;19928;-49
2022/03/21 11:22:33;;;;;;;;;;;19.90;29.90;;;;;;5058758;28;19952;-51
2022/03/21 11:25:02;;;;;;;;;;;19.90;29.90;;;;;;5054477;28;19981;-51
2022/03/21 11:27:33;;;;;;;;;;;19.90;29.80;;;;;;5056452;28;20533;-51
2022/03/21 11:30:02;;;;;;;;;;;19.90;29.80;;;;;;5089665;28;19959;-50
2022/03/21 11:32:33;;;;;;;;;;;19.90;29.80;;;;;;5059534;28;19928;-47
2022/03/21 11:35:03;;;;;;;;;;;19.90;29.80;;;;;;5058040;28;19921;-54
2022/03/21 11:37:30;;;;;;;;;;;19.90;29.70;;;;;;5064992;28;19921;-60
2022/03/21 11:40:16;;;;;;;;;;;19.90;29.80;;;;;;5058199;28;20325;-52
2022/03/21 11:42:47;;;;;;;;;;;19.90;29.40;;;;;;5059945;28;19921;-50
2022/03/21 11:45:24;;;;;;;;;;;19.90;28.90;;;;;;5050848;28;19935;-56
2022/03/21 11:47:51;;;;;;;;;;;19.90;27.70;;;;;;5053280;28;19963;-51
2022/03/21 11:50:27;;;;;;;;;;;19.80;26.70;;;;;;5057038;28;19971;-53
2022/03/21 11:53:09;;;;;;;;;;;19.70;26.30;;;;;;5057541;28;20226;-56
2022/03/21 11:55:37;;;;;;;;;;;19.60;25.80;;;;;;5073907;28;19978;-49
2022/03/21 11:58:18;;;;;;;;;;;19.50;25.70;;;;;;5060746;28;19920;-52
2022/03/21 12:01:01;;;;;;;;;;;19.40;25.80;;;;;;5072428;28;19928;-55
2022/03/21 12:03:29;;;;;;;;;;;19.30;25.90;;;;;;5051149;28;19951;-51
2022/03/21 12:05:56;;;;;;;;;;;19.10;25.20;;;;;;5057944;28;19924;-54
2022/03/21 12:08:33;;;;;;;;;;;19.10;25.00;;;;;;5092255;28;19931;-56
2022/03/21 12:11:01;;;;;;;;;;;19.00;25.30;;;;;;5060007;28;20027;-56
2022/03/21 12:13:39;;;;;;;;;;;18.90;25.70;;;;;;5061873;28;20023;-54
2022/03/21 12:16:16;;;;;;;;;;;18.90;25.60;;;;;;5081804;28;19924;-52
2022/03/21 12:19:01;;;;;;;;;;;18.80;25.60;;;;;;5090593;28;20011;-54
2022/03/21 12:21:28;;;;;;;;;;;18.80;25.20;;;;;;5060343;28;19929;-52
2022/03/21 12:24:13;;;;;;;;;;;18.70;25.00;;;;;;5060664;28;19920;-44
2022/03/21 12:26:48;;;;;;;;;;;18.70;24.90;;;;;;5064954;28;19932;-48
2022/03/21 12:29:33;;;;;;;;;;;18.60;25.50;;;;;;5062984;28;20722;-46
2022/03/21 12:32:18;;;;;;;;;;;18.60;26.00;;;;;;5067313;28;19966;-45
2022/03/21 12:34:46;;;;;;;;;;;18.60;26.50;;;;;;5059547;28;19925;-44
2022/03/21 12:37:24;;;;;;;;;;;18.70;26.90;;;;;;5061189;28;20036;-42
2022/03/21 12:39:50;;;;;;;;;;;18.70;27.10;;;;;;5063110;28;19957;-47
2022/03/21 12:42:17;;;;;;;;;;;18.80;27.30;;;;;;5060418;28;19931;-46
2022/03/21 12:44:44;;;;;;;;;;;18.80;27.50;;;;;;5066767;28;19921;-48
2022/03/21 12:47:11;;;;;;;;;;;18.90;27.70;;;;;;5062513;28;19924;-44
2022/03/21 12:49:48;;;;;;;;;;;18.90;27.80;;;;;;5057203;28;20370;-45
2022/03/21 12:52:25;;;;;;;;;;;19.00;28.00;;;;;;5088227;27;19952;-46
2022/03/21 12:54:53;;;;;;;;;;;19.10;28.20;;;;;;5059489;28;19948;-45
2022/03/21 12:57:20;;;;;;;;;;;19.10;28.20;;;;;;5073564;28;20312;-45
2022/03/21 12:59:47;;;;;;;;;;;19.20;28.40;;;;;;5058470;28;20023;-47
2022/03/21 13:02:22;;;;;;;;;;;19.20;28.50;;;;;;5063352;28;19932;-43
2022/03/21 13:10:36;;;;;;;;;;;19.40;28.90;;;;;;5060968;28;20371;-44
2022/03/21 13:13:04;;;;;;;;;;;19.40;29.00;;;;;;5061391;28;20084;-47
2022/03/21 13:15:31;;;;;;;;;;;19.40;29.10;;;;;;5063984;28;19920;-48
2022/03/21 13:18:01;;;;;;;;;;;19.50;29.20;;;;;;5060149;28;19927;-47
2022/03/21 13:20:32;;;;;;;;;;;19.50;29.30;;;;;;5055851;28;19970;-46
2022/03/21 13:22:58;;;;;;;;;;;19.50;29.30;;;;;;5060024;28;20001;-46
2022/03/21 13:25:26;;;;;;;;;;;19.60;29.40;;;;;;5060587;28;19928;-49
2022/03/21 13:27:53;;;;;;;;;;;19.60;29.50;;;;;;5060049;28;20311;-43
2022/03/21 13:30:20;;;;;;;;;;;19.60;29.50;;;;;;5064135;28;19921;-44
2022/03/21 13:32:46;;;;;;;;;;;19.70;29.70;;;;;;5064371;28;19925;-45
2022/03/21 13:35:13;;;;;;;;;;;19.70;29.70;;;;;;5061382;28;19929;-43
2022/03/21 13:37:41;;;;;;;;;;;19.70;29.80;;;;;;5061905;28;20381;-46
2022/03/21 13:40:09;;;;;;;;;;;19.70;29.80;;;;;;5091606;28;19937;-43
2022/03/21 13:42:36;;;;;;;;;;;19.70;29.80;;;;;;5065054;28;20015;-47
2022/03/21 13:45:05;;;;;;;;;;;19.80;29.90;;;;;;5062116;28;19928;-44
2022/03/21 13:47:31;;;;;;;;;;;19.80;30.00;;;;;;5045284;28;19928;-46
2022/03/21 13:50:05;;;;;;;;;;;19.80;30.00;;;;;;5061656;28;20288;-42
2022/03/21 13:52:44;;;;;;;;;;;19.80;30.00;;;;;;5059630;28;19927;-44
2022/03/21 13:55:12;;;;;;;;;;;19.90;30.10;;;;;;5058803;28;20044;-46
2022/03/21 13:57:45;;;;;;;;;;;19.90;30.20;;;;;;5060317;28;19997;-43
2022/03/21 14:00:12;;;;;;;;;;;19.90;30.20;;;;;;5095032;28;19946;-42
2022/03/21 14:02:41;;;;;;;;;;;19.90;30.30;;;;;;5062069;28;20016;-45
2022/03/21 14:05:18;;;;;;;;;;;19.90;30.30;;;;;;5061144;28;19972;-42
2022/03/21 14:07:46;;;;;;;;;;;19.90;30.40;;;;;;5093631;28;19920;-42
2022/03/21 14:10:14;;;;;;;;;;;19.90;30.30;;;;;;5061831;28;19963;-42
2022/03/21 14:12:41;;;;;;;;;;;20.00;30.50;;;;;;5065328;28;19921;-43
2022/03/21 14:15:08;;;;;;;;;;;20.00;30.50;;;;;;5059148;28;19927;-42
2022/03/21 14:17:35;;;;;;;;;;;20.00;30.60;;;;;;5063249;28;20015;-43
2022/03/21 14:20:02;;;;;;;;;;;20.00;30.70;;;;;;5065646;28;20034;-44
2022/03/21 14:22:28;;;;;;;;;;;20.00;30.70;;;;;;5063283;28;19921;-44
2022/03/21 14:24:57;;;;;;;;;;;20.00;30.70;;;;;;5044132;28;20393;-47
2022/03/21 14:27:24;;;;;;;;;;;20.00;30.80;;;;;;5064401;28;20527;-46
2022/03/21 14:29:51;;;;;;;;;;;20.10;30.90;;;;;;5064406;28;20059;-44
2022/03/21 14:32:18;;;;;;;;;;;20.10;30.90;;;;;;5063007;28;19942;-45
2022/03/21 14:34:45;;;;;;;;;;;20.10;31.00;;;;;;5064841;28;19974;-45
2022/03/21 14:37:12;;;;;;;;;;;20.10;31.00;;;;;;5059163;28;20020;-44
2022/03/21 14:39:39;;;;;;;;;;;20.10;31.00;;;;;;5061143;28;19952;-47
2022/03/21 14:42:08;;;;;;;;;;;20.10;31.00;;;;;;5060676;28;20323;-45
2022/03/21 14:44:35;;;;;;;;;;;20.10;31.10;;;;;;5057633;28;20023;-42
2022/03/21 14:47:02;;;;;;;;;;;20.10;31.10;;;;;;5053148;28;20337;-48